ダブリン の空港の天気 - METARとTAF

ダブリン空港 ( EIDW / DUB ) - アイルランド ダブリン
飛行場実況気象(Metar)
観測時間01/17 06:30 GMT (01/17 06:30 UTC)
風向・風速西南西 4m/s
視程8000m
天気現象
少しの雲 雲底高度 90m
全天の4割程度の雲 雲底高度 150m
全天の8割程度の雲 雲底高度 240m
気温9℃
湿度93%
気圧1032hPa
METAREIDW 170630Z 24007KT 8000 FEW003 SCT005 BKN008 09/08 Q1032 TEMPO BKN003
過去の天気等 Google飛行場航空写真 Wunderground天気予報

過去48時間のMETAR

飛行場予報(TAF)
発表時間: 1/17 05:00 GMT (1/17 05:00 UTC)
予報対象時間: 17日6時 GMT ~ 18日6時 GMT
風向・風速西南西 3m/s
視程10km以上
全天の4割程度の雲 雲底高度 150m
全天の8割程度の雲 雲底高度 460m
17日6時 GMT ~ 17日10時 GMT に一時的に
全天の8割程度の雲 雲底高度 150m
17日6時 GMT ~ 17日9時 GMT に 確率 40% で一時的に
視程3,000m
天気現象もや
全天の8割程度の雲 雲底高度 90m
17日9時 GMT ~ 17日12時 GMT に徐々に
風向・風速南南西 3m/s
全天の4割程度の雲 雲底高度 460m
全天の8割程度の雲 雲底高度 760m
17日10時 GMT ~ 18日6時 GMT に一時的に
風向・風速不定 2m/s
17日10時 GMT ~ 17日13時 GMT に 確率 30% で一時的に
全天の8割程度の雲 雲底高度 240m
17日21時 GMT ~ 17日24時 GMT に徐々に
風向・風速南 3m/s
TAF EIDW 170500Z 1706/1806 24005KT 9999 SCT005 BKN015
TEMPO 1706/1710 BKN005
PROB40 TEMPO 1706/1709 3000 BR BKN003
BECMG 1709/1712 21005KT SCT015 BKN025
TEMPO 1710/1806 VRB03KT
PROB30 TEMPO 1710/1713 BKN008
BECMG 1721/1724 18005KT